• Join FlightAware (Why Join?)
  • Login
  • US Flag 
05:56PM EST


 

Airport Tracker/Info


-or-


 

Live Flight TrackerFlight Track Log ✈ AAY853 ✈ 23-Jul-2014 ✈ KPBG - KPIE

Flight Track Log - Related Links

Times and Time Zones

All times are in EDT time to prevent confusion due to time zone crossing. See the AAY853 flight status page for this flight to view local times or setup timezone preferences in your user account.

Time Position Orientation Groundspeed Altitude Reporting Facility
EDT Latitude Longitude Course Direction KTS MPH feet Rate Location/Type
12:34PM 44.5575 -73.5861 187° South 242 278 5,300  Level Boston Center
12:35PM 44.4878 -73.6061 192° South 264 304 7,900 2,448 Climbing Boston Center
12:36PM 44.3997 -73.6153 184° South 281 323 10,400 1,869 Climbing Boston Center
12:37PM 44.3033 -73.6264 185° South 331 381 11,700 1,854 Climbing Boston Center
12:38PM 44.2075 -73.6381 185° South 346 398 14,200 2,143 Climbing Boston Center
12:39PM 44.1011 -73.6508 185° South 359 413 16,200 1,935 Climbing Boston Center
12:40PM 43.7360 -73.6242 187° South  Level FlightAware Approximate
12:40PM 43.9997 -73.6622 185° South 368 423 18,200  Level Boston Center
12:41PM 43.6214 -73.6437 187° South  Level FlightAware Approximate
12:41PM 43.9019 -73.6736 185° South 372 428 19,800  Level Boston Center
12:42PM 43.7942 -73.6839 184° South 382 440 21,200 1,500 Climbing Boston Center
12:43PM 43.6622 -73.6989 185° South 395 455 22,900 1,152 Climbing Boston Center
12:44PM 43.5486 -73.7133 185° South 406 467 23,600 816 Climbing Boston Center
12:45PM 43.4342 -73.7261 185° South 411 473 24,600 1,041 Climbing Boston Center
12:46PM 43.3150 -73.7386 184° South 425 489 25,700 1,016 Climbing Boston Center
12:47PM 43.1936 -73.7533 185° South 433 498 26,700 1,016 Climbing Boston Center
12:48PM 43.0644 -73.7678 185° South 443 510 27,800 1,041 Climbing Boston Center
12:49PM 42.9403 -73.7769 183° South 446 513 28,800 857 Climbing Boston Center
12:50PM 42.8125 -73.7583 174° South 461 531 29,600 1,048 Climbing Boston Center
12:51PM 42.6694 -73.6719 156° South 475 547 31,000 1,140 Climbing Boston Center
12:52PM 42.5472 -73.6136 161° South 474 545 31,900 927 Climbing Boston Center
12:53PM 42.4189 -73.6111 180° South 467 537 32,900 968 Climbing Boston Center
12:54PM 42.4124 -73.6333 180° South  Level FlightAware Approximate
12:54PM 42.2764 -73.6064 179° South 467 537 33,900  Level Boston Center
12:55PM 42.1464 -73.6039 179° South 467 537 34,900 864 Climbing Boston Center
12:56PM 42.0086 -73.5997 179° South 466 536 35,700 492 Climbing Boston Center
12:58PM 41.8853 -73.6347 192° South 465 535 35,900 98 Climbing Boston Center
12:59PM 41.7844 -73.7100 209° Southwest 456 525 35,900  Level Boston Center
01:00PM 41.6711 -73.7883 207° Southwest 455 524 35,900 -48 Level Boston Center
01:01PM 41.5386 -73.8806 208° Southwest 455 524 35,800  Descending Boston Center
01:02PM 41.3819 -73.9978 209° Southwest 457 526 35,900 48 Climbing New York Center
01:03PM 41.3164 -74.0372 204° Southwest 455 524 35,900  Level Boston Center
01:04PM 41.2039 -74.1158 208° Southwest 457 526 35,900  Level Boston Center
01:05PM 41.0825 -74.1997 208° Southwest 458 527 35,900  Level Boston Center
01:06PM 40.9786 -74.2722 208° Southwest 458 527 35,900 -49 Level Boston Center
01:07PM 40.8444 -74.3681 208° Southwest 458 527 35,800 -48 Descending Boston Center
01:08PM 40.7589 -74.4622 220° Southwest 458 527 35,800 48 Level Boston Center
01:09PM 40.6761 -74.5889 229° Southwest 458 527 35,900 50 Climbing Boston Center
01:10PM 40.5808 -74.7456 231° Southwest 459 528 35,900  Level Boston Center
01:11PM 40.4944 -74.8683 227° Southwest 459 528 35,900 -48 Level Boston Center
01:12PM 40.4081 -74.9892 227° Southwest 458 527 35,800  Descending Boston Center
01:13PM 40.3100 -75.1314 228° Southwest 464 534 35,900  Climbing New York Center
01:14PM 40.2242 -75.2536 227° Southwest 464 534 35,800 -50 Descending New York Center
01:15PM 40.1406 -75.3733 228° Southwest 459 528 35,800  Level New York Center
01:17PM 39.9994 -75.5608 226° Southwest 455 524 35,800 39 Level Washington Center
01:18PM 39.9122 -75.6817 227° Southwest 457 526 35,900 48 Climbing Washington Center
01:19PM 39.8333 -75.8078 231° Southwest 456 525 35,900 -48 Level Washington Center
01:20PM 39.7550 -75.9336 231° Southwest 455 524 35,800 -49 Descending Washington Center
01:21PM 39.6758 -76.0572 230° Southwest 446 513 35,800  Level Washington Center
01:22PM 39.5844 -76.2039 231° Southwest 443 510 35,800  Level Washington Center
01:23PM 39.5050 -76.3244 230° Southwest 443 510 35,800  Level Washington Center
01:24PM 39.4264 -76.4464 230° Southwest 444 511 35,800 48 Level Washington Center
01:25PM 39.3472 -76.5708 231° Southwest 440 506 35,900 48 Climbing Washington Center
01:26PM 39.2703 -76.6939 231° Southwest 441 507 35,900  Level Washington Center
01:27PM 39.1903 -76.8144 229° Southwest 443 510 35,900  Level Washington Center
01:28PM 39.0981 -76.9600 231° Southwest 441 507 35,900  Level Washington Center
01:29PM 39.0139 -77.0742 227° Southwest 441 507 35,900 49 Level Washington Center
01:30PM 38.9186 -77.1758 220° Southwest 444 511 36,000  Climbing Washington Center
01:31PM 38.8264 -77.2758 220° Southwest 434 499 35,900 -48 Descending Washington Center
01:32PM 38.7331 -77.3781 221° Southwest 435 501 35,900  Level Washington Center
01:33PM 38.6419 -77.4786 221° Southwest 432 497 35,900  Level Washington Center
01:34PM 38.5511 -77.5764 220° Southwest 428 493 35,900 -48 Level Washington Center
01:35PM 38.4608 -77.6742 220° Southwest 423 487 35,800  Descending Washington Center
01:36PM 38.3483 -77.7847 218° Southwest 423 487 35,900 48 Climbing Washington Center
01:37PM 38.2539 -77.8786 218° Southwest 424 488 35,900  Level Washington Center
01:38PM 38.1597 -77.9717 218° Southwest 425 489 35,900  Level Washington Center
01:39PM 38.0644 -78.0631 217° Southwest 426 490 35,900  Level Washington Center
01:40PM 37.9744 -78.1547 219° Southwest 425 489 35,900 -48 Level Washington Center
01:42PM 37.8717 -78.2539 217° Southwest 421 484 35,800  Descending Washington Center
01:43PM 37.7789 -78.3439 217° Southwest 420 483 35,900 48 Climbing Washington Center
01:44PM 37.6856 -78.4336 217° Southwest 421 484 35,900  Level Washington Center
01:45PM 37.5919 -78.5233 217° Southwest 421 484 35,900  Level Washington Center
01:46PM 37.4806 -78.6314 218° Southwest 421 484 35,900  Level Washington Center
01:47PM 37.3875 -78.7208 217° Southwest 420 483 35,900  Level Washington Center
01:48PM 37.2936 -78.8086 217° Southwest 420 483 35,900  Level Washington Center
01:49PM 37.2003 -78.8994 218° Southwest 421 484 35,900  Level Washington Center
01:50PM 37.1064 -78.9878 217° Southwest 421 484 35,900  Level Washington Center
01:51PM 37.0122 -79.0772 217° Southwest 421 484 35,900  Level Washington Center
01:52PM 36.9006 -79.1831 217° Southwest 421 484 35,900  Level Washington Center
01:53PM 36.8069 -79.2714 217° Southwest 421 484 35,900  Level Washington Center
01:54PM 36.7136 -79.3592 217° Southwest 420 483 35,900  Level Washington Center
01:55PM 36.6197 -79.4481 217° Southwest 421 484 35,900  Level Washington Center
01:56PM 36.5261 -79.5358 217° Southwest 422 486 35,900  Level Washington Center
01:57PM 36.4311 -79.6219 216° Southwest 421 484 35,900  Level Washington Center
01:58PM 36.3314 -79.7142 217° Southwest 421 484 35,900  Level Washington Center
01:59PM 36.2378 -79.8008 217° Southwest 421 484 35,900  Level Washington Center
02:00PM 36.1261 -79.8947 214° Southwest 409 471 35,900  Level Atlanta Center
02:01PM 36.0286 -79.9794 215° Southwest 410 472 35,900  Level Atlanta Center
02:02PM 35.9200 -80.0336 202° Southwest 431 496 35,900  Level Atlanta Center
02:03PM 35.8111 -80.0903 203° Southwest 424 488 35,900  Level Atlanta Center
02:04PM 35.7022 -80.1439 202° Southwest 412 474 35,900  Level Atlanta Center
02:05PM 35.5936 -80.2053 205° Southwest 430 495 35,900  Level Atlanta Center
02:06PM 35.4847 -80.2589 202° Southwest 457 526 35,900  Level Atlanta Center
02:07PM 35.3758 -80.3122 202° Southwest 457 526 35,900  Level Atlanta Center
02:08PM 35.2689 -80.3656 202° Southwest 457 526 35,900  Level Atlanta Center
02:09PM 35.1558 -80.4239 203° Southwest 457 526 35,900  Level Atlanta Center
02:10PM 35.0275 -80.4844 201° Southwest 446 513 35,900  Level Jacksonville Center
02:11PM 34.9181 -80.5406 203° Southwest 441 507 35,900  Level Jacksonville Center
02:12PM 34.8269 -80.5836 201° Southwest 435 501 35,900  Level Jacksonville Center
02:13PM 34.7156 -80.6397 202° Southwest 421 484 35,900  Level Jacksonville Center
02:14PM 34.5872 -80.7036 202° Southwest 440 506 35,900  Level Jacksonville Center
02:15PM 34.4775 -80.7542 201° Southwest 445 512 35,900  Level Jacksonville Center
02:16PM 34.3681 -80.8097 203° Southwest 438 504 35,900  Level Jacksonville Center
02:17PM 34.2747 -80.8572 203° Southwest 431 496 35,900  Level Jacksonville Center
02:18PM 34.1650 -80.9100 202° Southwest 426 490 35,900 -50 Level Jacksonville Center
02:19PM 34.0428 -80.9678 201° Southwest 434 499 35,800  Descending Jacksonville Center
02:20PM 33.9311 -81.0228 202° Southwest 434 499 35,900 50 Climbing Jacksonville Center
02:21PM 33.8192 -81.0728 200° South 434 499 35,900  Level Jacksonville Center
02:22PM 33.7094 -81.1300 203° Southwest 434 499 35,900  Level Jacksonville Center
02:23PM 33.5994 -81.1844 202° Southwest 434 499 35,900  Level Jacksonville Center
02:24PM 33.4875 -81.2389 202° Southwest 434 499 35,900  Level Jacksonville Center
02:25PM 33.3756 -81.2933 202° Southwest 434 499 35,900  Level Jacksonville Center
02:26PM 33.2678 -81.3472 203° Southwest 434 499 35,900  Level Jacksonville Center
02:27PM 33.1556 -81.4014 202° Southwest 434 499 35,900  Level Jacksonville Center
02:28PM 33.0414 -81.4553 202° Southwest 434 499 35,900  Level Jacksonville Center
02:29PM 32.9314 -81.5117 203° Southwest 434 499 35,900  Level Jacksonville Center
02:30PM 32.8214 -81.5628 201° Southwest 434 499 35,900 -50 Level Jacksonville Center
02:31PM 32.7114 -81.6186 203° Southwest 434 499 35,800  Descending Jacksonville Center
02:32PM 32.5992 -81.6719 202° Southwest 434 499 35,900 50 Climbing Jacksonville Center
02:33PM 32.5014 -81.7200 203° Southwest 434 499 35,900  Level Jacksonville Center
02:34PM 32.3850 -81.7756 202° Southwest 423 487 35,900  Level Jacksonville Center
02:35PM 32.2811 -81.8261 202° Southwest 410 472 35,900  Level Jacksonville Center
02:36PM 32.1833 -81.8689 200° South 415 478 35,900  Level Jacksonville Center
02:37PM 32.0669 -81.9267 203° Southwest 415 478 35,900  Level Jacksonville Center
02:38PM 31.9711 -81.9692 201° Southwest 415 478 35,900  Level Jacksonville Center
02:39PM 31.8525 -82.0194 200° South 410 472 35,900  Level Jacksonville Center
02:40PM 31.7461 -82.0619 199° South 410 472 35,900  Level Jacksonville Center
02:41PM 31.6506 -82.0994 198° South 412 474 35,900 -50 Level Jacksonville Center
02:42PM 31.5317 -82.1517 201° Southwest 412 474 35,800  Descending Jacksonville Center
02:43PM 31.4256 -82.1939 199° South 406 467 35,900 50 Climbing Jacksonville Center
02:44PM 31.3150 -82.2358 198° South 412 474 35,900  Level Jacksonville Center
02:45PM 31.2108 -82.2781 199° South 412 474 35,900  Level Jacksonville Center
02:46PM 31.1006 -82.3225 199° South 412 474 35,900  Level Jacksonville Center
02:47PM 30.9919 -82.3642 198° South 412 474 35,900  Level Jacksonville Center
02:48PM 30.8836 -82.4036 197° South 412 474 35,900  Level Jacksonville Center
02:49PM 30.7708 -82.3994 178° South 398 458 35,900  Level Jacksonville Center
02:50PM 30.6561 -82.3928 177° South 398 458 35,900 -50 Level Jacksonville Center
02:51PM 30.5433 -82.3933 180° South 404 465 35,800  Descending Jacksonville Center
02:52PM 30.4306 -82.3892 178° South 404 465 35,900 50 Climbing Jacksonville Center
02:53PM 30.3239 -82.3847 178° South 404 465 35,900  Level Jacksonville Center
02:54PM 30.2111 -82.3806 178° South 409 471 35,900  Level Jacksonville Center
02:55PM 30.0983 -82.3764 178° South 409 471 35,900 -300 Level Jacksonville Center
02:56PM 29.9836 -82.3697 177° South 409 471 35,300 -1,150 Descending Jacksonville Center
02:57PM 29.8708 -82.3633 177° South 409 471 33,600 -2,218 Descending Jacksonville Center
02:58PM 29.7478 -82.3614 179° South 409 471 30,900 -2,850 Descending Jacksonville Center
02:59PM 29.6286 -82.3575 178° South 409 471 27,900 -2,529 Descending Jacksonville Center
03:00PM 29.5117 -82.3486 176° South 421 484 25,800 -2,017 Descending Jacksonville Center
03:01PM 29.3969 -82.3347 174° South 421 484 23,900 -1,900 Descending Jacksonville Center
03:02PM 29.2861 -82.3331 179° South 416 479 22,000 -1,884 Descending Jacksonville Center
03:03PM 29.1775 -82.3314 179° South 405 466 20,100 -1,800 Descending Jacksonville Center
03:04PM 29.0775 -82.3319 180° South 392 451 18,400 -1,714 Descending Jacksonville Center
03:05PM 28.9794 -82.3372 183° South 368 423 16,700 -1,714 Descending Jacksonville Center
03:06PM 28.8792 -82.3425 183° South 363 418 15,000 -1,509 Descending Jacksonville Center
03:08PM 28.7167 -82.3500 182° South 337 388 12,700 -1,158 Descending Tampa TRACON
03:09PM 28.6167 -82.3500 180° South 288 331 11,700 -952 Descending Tampa TRACON
03:10PM 28.5500 -82.3500 180° South 292 336 10,700 -900 Descending Tampa TRACON
03:11PM 28.5167 -82.4500 249° West 289 333 9,900 -350 Descending Tampa TRACON
03:12PM 28.4833 -82.5167 240° Southwest 291 335 10,000 -100 Climbing Tampa TRACON
03:13PM 28.4333 -82.6000 236° Southwest 291 335 9,700 -905 Descending Tampa TRACON
03:14PM 28.3833 -82.6667 230° Southwest 287 330 8,100 -1,550 Descending Tampa TRACON
03:15PM 28.3333 -82.7167 221° Southwest 279 321 6,600 -1,579 Descending Tampa TRACON
03:16PM 28.2500 -82.7333 190° South 276 318 5,100 -842 Descending Tampa TRACON
03:17PM 28.1833 -82.7667 204° Southwest 274 315 5,000 -100 Descending Tampa TRACON
03:18PM 28.1167 -82.7667 180° South 274 315 4,900 -524 Descending Tampa TRACON
03:19PM 28.0333 -82.7667 180° South 272 313 3,900 -524 Descending Tampa TRACON
03:20PM 27.9500 -82.7500 170° South 273 314 3,800 -600 Descending Tampa TRACON
03:21PM 27.8833 -82.7500 180° South 264 304 2,700 -1,053 Descending Tampa TRACON
03:22PM 27.8333 -82.7333 164° South 215 247 1,800 -842 Descending Tampa TRACON
03:23PM 27.8500 -82.6833 69° East 164 189 1,100 -750 Descending Tampa TRACON
03:24PM 27.8833 -82.6833 360° North 131 151 300 -800 Descending Tampa TRACON
03:26PM 27.9000 -82.6833 310° West  Level FlightAware Approximate